sensor_id;sensor_type;location;lat;lon;timestamp;P1;durP1;ratioP1;P2;durP2;ratioP2
69404;SDS011;57084;52.046;5.632;2022-08-04T00:00:04;8.4;;;2.2;;
69404;SDS011;57084;52.046;5.632;2022-08-04T00:01:03;8.4;;;2.2;;
69404;SDS011;57084;52.046;5.632;2022-08-04T00:02:05;10.3;;;2.1;;
69404;SDS011;57084;52.046;5.632;2022-08-04T00:03:09;10.3;;;2.1;;
69404;SDS011;57084;52.046;5.632;2022-08-04T00:04:01;10.3;;;2.1;;
69404;SDS011;57084;52.046;5.632;2022-08-04T00:05:03;10.3;;;2.1;;
69404;SDS011;57084;52.046;5.632;2022-08-04T00:06:03;10.3;;;2.1;;
69404;SDS011;57084;52.046;5.632;2022-08-04T00:07:06;7.4;;;1.9;;
69404;SDS011;57084;52.046;5.632;2022-08-04T00:08:05;7.4;;;1.9;;
69404;SDS011;57084;52.046;5.632;2022-08-04T00:09:02;7.4;;;1.9;;
69404;SDS011;57084;52.046;5.632;2022-08-04T00:10:02;7.4;;;1.9;;
69404;SDS011;57084;52.046;5.632;2022-08-04T00:11:01;7.4;;;1.9;;
69404;SDS011;57084;52.046;5.632;2022-08-04T00:12:02;8.0;;;1.9;;
69404;SDS011;57084;52.046;5.632;2022-08-04T00:13:02;8.0;;;1.9;;
69404;SDS011;57084;52.046;5.632;2022-08-04T00:14:02;8.0;;;1.9;;
69404;SDS011;57084;52.046;5.632;2022-08-04T00:15:03;8.0;;;1.9;;
69404;SDS011;57084;52.046;5.632;2022-08-04T00:16:03;8.0;;;1.9;;
69404;SDS011;57084;52.046;5.632;2022-08-04T00:17:03;7.0;;;2.1;;
69404;SDS011;57084;52.046;5.632;2022-08-04T00:18:03;7.0;;;2.1;;
69404;SDS011;57084;52.046;5.632;2022-08-04T00:19:03;7.0;;;2.1;;
69404;SDS011;57084;52.046;5.632;2022-08-04T00:20:02;7.0;;;2.1;;
69404;SDS011;57084;52.046;5.632;2022-08-04T00:21:05;7.0;;;2.1;;
69404;SDS011;57084;52.046;5.632;2022-08-04T00:22:02;8.6;;;2.4;;
69404;SDS011;57084;52.046;5.632;2022-08-04T00:23:01;8.6;;;2.4;;
69404;SDS011;57084;52.046;5.632;2022-08-04T00:24:00;8.6;;;2.4;;
69404;SDS011;57084;52.046;5.632;2022-08-04T00:25:01;8.6;;;2.4;;
69404;SDS011;57084;52.046;5.632;2022-08-04T00:26:02;8.6;;;2.4;;
69404;SDS011;57084;52.046;5.632;2022-08-04T00:27:00;6.7;;;1.7;;
69404;SDS011;57084;52.046;5.632;2022-08-04T00:28:00;6.7;;;1.7;;
69404;SDS011;57084;52.046;5.632;2022-08-04T00:29:00;6.7;;;1.7;;
69404;SDS011;57084;52.046;5.632;2022-08-04T00:30:00;6.7;;;1.7;;
69404;SDS011;57084;52.046;5.632;2022-08-04T00:31:00;6.7;;;1.7;;
69404;SDS011;57084;52.046;5.632;2022-08-04T00:32:01;9.0;;;2.1;;
69404;SDS011;57084;52.046;5.632;2022-08-04T00:33:01;9.0;;;2.1;;
69404;SDS011;57084;52.046;5.632;2022-08-04T00:34:00;9.0;;;2.1;;
69404;SDS011;57084;52.046;5.632;2022-08-04T00:35:01;9.0;;;2.1;;
69404;SDS011;57084;52.046;5.632;2022-08-04T00:36:01;9.0;;;2.1;;
69404;SDS011;57084;52.046;5.632;2022-08-04T00:37:00;8.6;;;1.8;;
69404;SDS011;57084;52.046;5.632;2022-08-04T00:38:01;8.6;;;1.8;;
69404;SDS011;57084;52.046;5.632;2022-08-04T00:39:00;8.6;;;1.8;;
69404;SDS011;57084;52.046;5.632;2022-08-04T00:40:01;8.6;;;1.8;;
69404;SDS011;57084;52.046;5.632;2022-08-04T00:41:08;8.6;;;1.8;;
69404;SDS011;57084;52.046;5.632;2022-08-04T00:42:15;5.6;;;1.7;;
69404;SDS011;57084;52.046;5.632;2022-08-04T00:43:09;5.6;;;1.7;;
69404;SDS011;57084;52.046;5.632;2022-08-04T00:44:12;5.6;;;1.7;;
69404;SDS011;57084;52.046;5.632;2022-08-04T00:45:15;5.6;;;1.7;;
69404;SDS011;57084;52.046;5.632;2022-08-04T00:46:18;5.6;;;1.7;;
69404;SDS011;57084;52.046;5.632;2022-08-04T00:47:06;10.0;;;2.2;;
69404;SDS011;57084;52.046;5.632;2022-08-04T00:48:10;10.0;;;2.2;;
69404;SDS011;57084;52.046;5.632;2022-08-04T00:49:07;10.0;;;2.2;;
69404;SDS011;57084;52.046;5.632;2022-08-04T00:50:07;10.0;;;2.2;;
69404;SDS011;57084;52.046;5.632;2022-08-04T00:51:10;10.0;;;2.2;;
69404;SDS011;57084;52.046;5.632;2022-08-04T00:52:10;8.8;;;1.9;;
69404;SDS011;57084;52.046;5.632;2022-08-04T00:53:05;8.8;;;1.9;;
69404;SDS011;57084;52.046;5.632;2022-08-04T00:54:05;8.8;;;1.9;;
69404;SDS011;57084;52.046;5.632;2022-08-04T00:55:04;8.8;;;1.9;;
69404;SDS011;57084;52.046;5.632;2022-08-04T00:56:15;8.8;;;1.9;;
69404;SDS011;57084;52.046;5.632;2022-08-04T00:57:08;7.9;;;1.9;;
69404;SDS011;57084;52.046;5.632;2022-08-04T00:58:10;7.9;;;1.9;;
69404;SDS011;57084;52.046;5.632;2022-08-04T00:59:03;7.9;;;1.9;;
69404;SDS011;57084;52.046;5.632;2022-08-04T01:00:04;7.9;;;1.9;;
69404;SDS011;57084;52.046;5.632;2022-08-04T01:01:03;7.9;;;1.9;;
69404;SDS011;57084;52.046;5.632;2022-08-04T01:02:05;9.6;;;2.0;;
69404;SDS011;57084;52.046;5.632;2022-08-04T01:03:07;9.6;;;2.0;;
69404;SDS011;57084;52.046;5.632;2022-08-04T01:04:02;9.6;;;2.0;;
69404;SDS011;57084;52.046;5.632;2022-08-04T01:05:03;9.6;;;2.0;;
69404;SDS011;57084;52.046;5.632;2022-08-04T01:06:05;9.6;;;2.0;;
69404;SDS011;57084;52.046;5.632;2022-08-04T01:07:22;6.6;;;2.1;;
69404;SDS011;57084;52.046;5.632;2022-08-04T01:08:14;6.6;;;2.1;;
69404;SDS011;57084;52.046;5.632;2022-08-04T01:09:05;6.6;;;2.1;;
69404;SDS011;57084;52.046;5.632;2022-08-04T01:10:03;6.6;;;2.1;;
69404;SDS011;57084;52.046;5.632;2022-08-04T01:11:03;6.6;;;2.1;;
69404;SDS011;57084;52.046;5.632;2022-08-04T01:12:10;5.5;;;1.8;;
69404;SDS011;57084;52.046;5.632;2022-08-04T01:13:10;5.5;;;1.8;;
69404;SDS011;57084;52.046;5.632;2022-08-04T01:14:15;5.5;;;1.8;;
69404;SDS011;57084;52.046;5.632;2022-08-04T01:15:04;5.5;;;1.8;;
69404;SDS011;57084;52.046;5.632;2022-08-04T01:16:03;5.5;;;1.8;;
69404;SDS011;57084;52.046;5.632;2022-08-04T01:17:09;8.5;;;2.4;;
69404;SDS011;57084;52.046;5.632;2022-08-04T01:18:04;8.5;;;2.4;;
69404;SDS011;57084;52.046;5.632;2022-08-04T01:19:02;8.5;;;2.4;;
69404;SDS011;57084;52.046;5.632;2022-08-04T01:20:03;8.5;;;2.4;;
69404;SDS011;57084;52.046;5.632;2022-08-04T01:21:09;8.5;;;2.4;;
69404;SDS011;57084;52.046;5.632;2022-08-04T01:22:16;7.5;;;2.0;;
69404;SDS011;57084;52.046;5.632;2022-08-04T01:23:19;7.5;;;2.0;;
69404;SDS011;57084;52.046;5.632;2022-08-04T01:24:16;7.5;;;2.0;;
69404;SDS011;57084;52.046;5.632;2022-08-04T01:25:10;7.5;;;2.0;;
69404;SDS011;57084;52.046;5.632;2022-08-04T01:26:16;7.5;;;2.0;;
69404;SDS011;57084;52.046;5.632;2022-08-04T01:27:01;7.2;;;2.3;;
69404;SDS011;57084;52.046;5.632;2022-08-04T01:28:14;7.2;;;2.3;;
69404;SDS011;57084;52.046;5.632;2022-08-04T01:29:04;7.2;;;2.3;;
69404;SDS011;57084;52.046;5.632;2022-08-04T01:30:00;7.2;;;2.3;;
69404;SDS011;57084;52.046;5.632;2022-08-04T01:31:05;7.2;;;2.3;;
69404;SDS011;57084;52.046;5.632;2022-08-04T01:32:02;6.4;;;2.3;;
69404;SDS011;57084;52.046;5.632;2022-08-04T01:33:03;6.4;;;2.3;;
69404;SDS011;57084;52.046;5.632;2022-08-04T01:34:04;6.4;;;2.3;;
69404;SDS011;57084;52.046;5.632;2022-08-04T01:35:03;6.4;;;2.3;;
69404;SDS011;57084;52.046;5.632;2022-08-04T01:36:03;6.4;;;2.3;;
69404;SDS011;57084;52.046;5.632;2022-08-04T01:37:07;8.6;;;2.4;;
69404;SDS011;57084;52.046;5.632;2022-08-04T01:38:03;8.6;;;2.4;;
69404;SDS011;57084;52.046;5.632;2022-08-04T01:39:00;8.6;;;2.4;;
69404;SDS011;57084;52.046;5.632;2022-08-04T01:40:02;8.6;;;2.4;;
69404;SDS011;57084;52.046;5.632;2022-08-04T01:41:03;8.6;;;2.4;;
69404;SDS011;57084;52.046;5.632;2022-08-04T01:42:01;11.7;;;2.4;;
69404;SDS011;57084;52.046;5.632;2022-08-04T01:43:00;11.7;;;2.4;;
69404;SDS011;57084;52.046;5.632;2022-08-04T01:44:00;11.7;;;2.4;;
69404;SDS011;57084;52.046;5.632;2022-08-04T01:45:02;11.7;;;2.4;;
69404;SDS011;57084;52.046;5.632;2022-08-04T01:46:02;11.7;;;2.4;;
69404;SDS011;57084;52.046;5.632;2022-08-04T01:47:01;9.2;;;2.6;;
69404;SDS011;57084;52.046;5.632;2022-08-04T01:48:02;9.2;;;2.6;;
69404;SDS011;57084;52.046;5.632;2022-08-04T01:49:01;9.2;;;2.6;;
69404;SDS011;57084;52.046;5.632;2022-08-04T01:50:04;9.2;;;2.6;;
69404;SDS011;57084;52.046;5.632;2022-08-04T01:51:03;9.2;;;2.6;;
69404;SDS011;57084;52.046;5.632;2022-08-04T01:52:01;10.5;;;3.0;;
69404;SDS011;57084;52.046;5.632;2022-08-04T01:53:02;10.5;;;3.0;;
69404;SDS011;57084;52.046;5.632;2022-08-04T01:54:00;10.5;;;3.0;;
69404;SDS011;57084;52.046;5.632;2022-08-04T01:55:02;10.5;;;3.0;;
69404;SDS011;57084;52.046;5.632;2022-08-04T01:56:00;10.5;;;3.0;;
69404;SDS011;57084;52.046;5.632;2022-08-04T01:57:03;9.5;;;3.0;;
69404;SDS011;57084;52.046;5.632;2022-08-04T01:58:00;9.5;;;3.0;;
69404;SDS011;57084;52.046;5.632;2022-08-04T01:59:02;9.5;;;3.0;;
69404;SDS011;57084;52.046;5.632;2022-08-04T02:00:00;9.5;;;3.0;;
69404;SDS011;57084;52.046;5.632;2022-08-04T02:01:02;9.5;;;3.0;;
69404;SDS011;57084;52.046;5.632;2022-08-04T02:02:00;9.5;;;3.0;;
69404;SDS011;57084;52.046;5.632;2022-08-04T02:03:00;9.5;;;3.5;;
69404;SDS011;57084;52.046;5.632;2022-08-04T02:04:00;9.5;;;3.5;;
69404;SDS011;57084;52.046;5.632;2022-08-04T02:05:01;9.5;;;3.5;;
69404;SDS011;57084;52.046;5.632;2022-08-04T02:06:10;9.5;;;3.5;;
69404;SDS011;57084;52.046;5.632;2022-08-04T02:07:06;10.8;;;3.3;;
69404;SDS011;57084;52.046;5.632;2022-08-04T02:08:06;10.8;;;3.3;;
69404;SDS011;57084;52.046;5.632;2022-08-04T02:09:07;10.8;;;3.3;;
69404;SDS011;57084;52.046;5.632;2022-08-04T02:10:04;10.8;;;3.3;;
69404;SDS011;57084;52.046;5.632;2022-08-04T02:11:03;10.8;;;3.3;;
69404;SDS011;57084;52.046;5.632;2022-08-04T02:12:04;10.8;;;3.3;;
69404;SDS011;57084;52.046;5.632;2022-08-04T02:13:08;10.7;;;2.8;;
69404;SDS011;57084;52.046;5.632;2022-08-04T02:14:07;10.7;;;2.8;;
69404;SDS011;57084;52.046;5.632;2022-08-04T02:15:07;10.7;;;2.8;;
69404;SDS011;57084;52.046;5.632;2022-08-04T02:16:02;10.7;;;2.8;;
69404;SDS011;57084;52.046;5.632;2022-08-04T02:17:01;10.7;;;2.8;;
69404;SDS011;57084;52.046;5.632;2022-08-04T02:18:02;8.2;;;3.1;;
69404;SDS011;57084;52.046;5.632;2022-08-04T02:19:04;8.2;;;3.1;;
69404;SDS011;57084;52.046;5.632;2022-08-04T02:20:07;8.2;;;3.1;;
69404;SDS011;57084;52.046;5.632;2022-08-04T02:21:01;8.2;;;3.1;;
69404;SDS011;57084;52.046;5.632;2022-08-04T02:22:06;8.2;;;3.1;;
69404;SDS011;57084;52.046;5.632;2022-08-04T02:23:02;7.7;;;3.1;;
69404;SDS011;57084;52.046;5.632;2022-08-04T02:24:05;7.7;;;3.1;;
69404;SDS011;57084;52.046;5.632;2022-08-04T02:25:04;7.7;;;3.1;;
69404;SDS011;57084;52.046;5.632;2022-08-04T02:26:01;7.7;;;3.1;;
69404;SDS011;57084;52.046;5.632;2022-08-04T02:27:02;7.7;;;3.1;;
69404;SDS011;57084;52.046;5.632;2022-08-04T02:28:10;8.1;;;2.8;;
69404;SDS011;57084;52.046;5.632;2022-08-04T02:29:06;8.1;;;2.8;;
69404;SDS011;57084;52.046;5.632;2022-08-04T02:30:03;8.1;;;2.8;;
69404;SDS011;57084;52.046;5.632;2022-08-04T02:31:03;8.1;;;2.8;;
69404;SDS011;57084;52.046;5.632;2022-08-04T02:32:03;8.1;;;2.8;;
69404;SDS011;57084;52.046;5.632;2022-08-04T02:33:02;7.7;;;3.0;;
69404;SDS011;57084;52.046;5.632;2022-08-04T02:34:05;7.7;;;3.0;;
69404;SDS011;57084;52.046;5.632;2022-08-04T02:35:05;7.7;;;3.0;;
69404;SDS011;57084;52.046;5.632;2022-08-04T02:36:03;7.7;;;3.0;;
69404;SDS011;57084;52.046;5.632;2022-08-04T02:37:03;7.7;;;3.0;;
69404;SDS011;57084;52.046;5.632;2022-08-04T02:38:11;10.6;;;3.4;;
69404;SDS011;57084;52.046;5.632;2022-08-04T02:39:02;10.6;;;3.4;;
69404;SDS011;57084;52.046;5.632;2022-08-04T02:40:03;10.6;;;3.4;;
69404;SDS011;57084;52.046;5.632;2022-08-04T02:41:00;10.6;;;3.4;;
69404;SDS011;57084;52.046;5.632;2022-08-04T02:42:02;10.6;;;3.4;;
69404;SDS011;57084;52.046;5.632;2022-08-04T02:43:02;11.0;;;4.0;;
69404;SDS011;57084;52.046;5.632;2022-08-04T02:44:01;11.0;;;4.0;;
69404;SDS011;57084;52.046;5.632;2022-08-04T02:45:01;11.0;;;4.0;;
69404;SDS011;57084;52.046;5.632;2022-08-04T02:46:01;11.0;;;4.0;;
69404;SDS011;57084;52.046;5.632;2022-08-04T02:47:00;11.0;;;4.0;;
69404;SDS011;57084;52.046;5.632;2022-08-04T02:48:01;10.3;;;3.7;;
69404;SDS011;57084;52.046;5.632;2022-08-04T02:49:01;10.3;;;3.7;;
69404;SDS011;57084;52.046;5.632;2022-08-04T02:50:01;10.3;;;3.7;;
69404;SDS011;57084;52.046;5.632;2022-08-04T02:51:02;10.3;;;3.7;;
69404;SDS011;57084;52.046;5.632;2022-08-04T02:52:00;10.3;;;3.7;;
69404;SDS011;57084;52.046;5.632;2022-08-04T02:53:02;11.5;;;3.9;;
69404;SDS011;57084;52.046;5.632;2022-08-04T02:54:03;11.5;;;3.9;;
69404;SDS011;57084;52.046;5.632;2022-08-04T02:55:01;11.5;;;3.9;;
69404;SDS011;57084;52.046;5.632;2022-08-04T02:56:01;11.5;;;3.9;;
69404;SDS011;57084;52.046;5.632;2022-08-04T02:57:01;11.5;;;3.9;;
69404;SDS011;57084;52.046;5.632;2022-08-04T02:58:02;9.1;;;3.7;;
69404;SDS011;57084;52.046;5.632;2022-08-04T02:59:01;9.1;;;3.7;;
69404;SDS011;57084;52.046;5.632;2022-08-04T03:00:04;9.1;;;3.7;;
69404;SDS011;57084;52.046;5.632;2022-08-04T03:01:00;9.1;;;3.7;;
69404;SDS011;57084;52.046;5.632;2022-08-04T03:02:00;9.1;;;3.7;;
69404;SDS011;57084;52.046;5.632;2022-08-04T03:03:10;11.5;;;3.8;;
69404;SDS011;57084;52.046;5.632;2022-08-04T03:04:21;11.5;;;3.8;;
69404;SDS011;57084;52.046;5.632;2022-08-04T03:05:06;11.5;;;3.8;;
69404;SDS011;57084;52.046;5.632;2022-08-04T03:06:18;11.5;;;3.8;;
69404;SDS011;57084;52.046;5.632;2022-08-04T03:07:17;11.5;;;3.8;;
69404;SDS011;57084;52.046;5.632;2022-08-04T03:08:17;13.6;;;3.7;;
69404;SDS011;57084;52.046;5.632;2022-08-04T03:10:18;13.6;;;3.7;;
69404;SDS011;57084;52.046;5.632;2022-08-04T03:11:10;13.6;;;3.7;;
69404;SDS011;57084;52.046;5.632;2022-08-04T03:12:17;13.6;;;3.7;;
69404;SDS011;57084;52.046;5.632;2022-08-04T03:13:17;12.5;;;4.0;;
69404;SDS011;57084;52.046;5.632;2022-08-04T03:14:08;12.5;;;4.0;;
69404;SDS011;57084;52.046;5.632;2022-08-04T03:15:16;12.5;;;4.0;;
69404;SDS011;57084;52.046;5.632;2022-08-04T03:16:07;12.5;;;4.0;;
69404;SDS011;57084;52.046;5.632;2022-08-04T03:17:30;12.5;;;4.0;;
69404;SDS011;57084;52.046;5.632;2022-08-04T03:18:23;9.6;;;3.5;;
69404;SDS011;57084;52.046;5.632;2022-08-04T03:19:16;9.6;;;3.5;;
69404;SDS011;57084;52.046;5.632;2022-08-04T03:21:18;9.6;;;3.5;;
69404;SDS011;57084;52.046;5.632;2022-08-04T03:23:18;11.8;;;3.8;;
69404;SDS011;57084;52.046;5.632;2022-08-04T03:24:23;11.8;;;3.8;;
69404;SDS011;57084;52.046;5.632;2022-08-04T03:26:20;11.8;;;3.8;;
69404;SDS011;57084;52.046;5.632;2022-08-04T03:27:10;11.8;;;3.8;;
69404;SDS011;57084;52.046;5.632;2022-08-04T03:28:16;11.5;;;3.6;;
69404;SDS011;57084;52.046;5.632;2022-08-04T03:29:16;11.5;;;3.6;;
69404;SDS011;57084;52.046;5.632;2022-08-04T03:30:05;11.5;;;3.6;;
69404;SDS011;57084;52.046;5.632;2022-08-04T03:31:09;11.5;;;3.6;;
69404;SDS011;57084;52.046;5.632;2022-08-04T03:32:19;11.5;;;3.6;;
69404;SDS011;57084;52.046;5.632;2022-08-04T03:33:23;14.2;;;3.9;;
69404;SDS011;57084;52.046;5.632;2022-08-04T03:34:10;14.2;;;3.9;;
69404;SDS011;57084;52.046;5.632;2022-08-04T03:35:15;14.2;;;3.9;;
69404;SDS011;57084;52.046;5.632;2022-08-04T03:37:07;14.2;;;3.9;;
69404;SDS011;57084;52.046;5.632;2022-08-04T03:38:13;10.1;;;3.8;;
69404;SDS011;57084;52.046;5.632;2022-08-04T03:39:08;10.1;;;3.8;;
69404;SDS011;57084;52.046;5.632;2022-08-04T03:40:28;10.1;;;3.8;;
69404;SDS011;57084;52.046;5.632;2022-08-04T03:41:17;10.1;;;3.8;;
69404;SDS011;57084;52.046;5.632;2022-08-04T03:42:19;10.1;;;3.8;;
69404;SDS011;57084;52.046;5.632;2022-08-04T03:43:20;13.5;;;3.7;;
69404;SDS011;57084;52.046;5.632;2022-08-04T03:44:19;13.5;;;3.7;;
69404;SDS011;57084;52.046;5.632;2022-08-04T03:45:15;13.5;;;3.7;;
69404;SDS011;57084;52.046;5.632;2022-08-04T03:46:30;13.5;;;3.7;;
69404;SDS011;57084;52.046;5.632;2022-08-04T03:47:17;13.5;;;3.7;;
69404;SDS011;57084;52.046;5.632;2022-08-04T03:48:08;10.4;;;3.7;;
69404;SDS011;57084;52.046;5.632;2022-08-04T03:49:18;10.4;;;3.7;;
69404;SDS011;57084;52.046;5.632;2022-08-04T03:50:12;10.4;;;3.7;;
69404;SDS011;57084;52.046;5.632;2022-08-04T03:51:13;10.4;;;3.7;;
69404;SDS011;57084;52.046;5.632;2022-08-04T03:52:05;10.4;;;3.7;;
69404;SDS011;57084;52.046;5.632;2022-08-04T03:53:18;10.8;;;3.9;;
69404;SDS011;57084;52.046;5.632;2022-08-04T03:54:32;10.8;;;3.9;;
69404;SDS011;57084;52.046;5.632;2022-08-04T03:55:16;10.8;;;3.9;;
69404;SDS011;57084;52.046;5.632;2022-08-04T03:56:15;10.8;;;3.9;;
69404;SDS011;57084;52.046;5.632;2022-08-04T03:57:17;10.8;;;3.9;;
69404;SDS011;57084;52.046;5.632;2022-08-04T03:59:16;9.3;;;3.7;;
69404;SDS011;57084;52.046;5.632;2022-08-04T04:00:04;9.3;;;3.7;;
69404;SDS011;57084;52.046;5.632;2022-08-04T04:01:08;9.3;;;3.7;;
69404;SDS011;57084;52.046;5.632;2022-08-04T04:02:16;9.3;;;3.7;;
69404;SDS011;57084;52.046;5.632;2022-08-04T04:03:17;8.6;;;3.6;;
69404;SDS011;57084;52.046;5.632;2022-08-04T04:04:24;8.6;;;3.6;;
69404;SDS011;57084;52.046;5.632;2022-08-04T04:05:20;8.6;;;3.6;;
69404;SDS011;57084;52.046;5.632;2022-08-04T04:07:19;8.6;;;3.6;;
69404;SDS011;57084;52.046;5.632;2022-08-04T04:08:11;12.2;;;3.8;;
69404;SDS011;57084;52.046;5.632;2022-08-04T04:09:12;12.2;;;3.8;;
69404;SDS011;57084;52.046;5.632;2022-08-04T04:10:10;12.2;;;3.8;;
69404;SDS011;57084;52.046;5.632;2022-08-04T04:11:21;12.2;;;3.8;;
69404;SDS011;57084;52.046;5.632;2022-08-04T04:12:13;12.2;;;3.8;;
69404;SDS011;57084;52.046;5.632;2022-08-04T04:13:06;13.1;;;3.8;;
69404;SDS011;57084;52.046;5.632;2022-08-04T04:14:10;13.1;;;3.8;;
69404;SDS011;57084;52.046;5.632;2022-08-04T04:15:07;13.1;;;3.8;;
69404;SDS011;57084;52.046;5.632;2022-08-04T04:16:14;13.1;;;3.8;;
69404;SDS011;57084;52.046;5.632;2022-08-04T04:17:08;13.1;;;3.8;;
69404;SDS011;57084;52.046;5.632;2022-08-04T04:18:15;12.2;;;3.7;;
69404;SDS011;57084;52.046;5.632;2022-08-04T04:19:21;12.2;;;3.7;;
69404;SDS011;57084;52.046;5.632;2022-08-04T04:20:15;12.2;;;3.7;;
69404;SDS011;57084;52.046;5.632;2022-08-04T04:21:15;12.2;;;3.7;;
69404;SDS011;57084;52.046;5.632;2022-08-04T04:22:08;12.2;;;3.7;;
69404;SDS011;57084;52.046;5.632;2022-08-04T04:23:10;8.4;;;3.7;;
69404;SDS011;57084;52.046;5.632;2022-08-04T04:24:09;8.4;;;3.7;;
69404;SDS011;57084;52.046;5.632;2022-08-04T04:25:04;8.4;;;3.7;;
69404;SDS011;57084;52.046;5.632;2022-08-04T04:26:19;8.4;;;3.7;;
69404;SDS011;57084;52.046;5.632;2022-08-04T04:27:08;8.4;;;3.7;;
69404;SDS011;57084;52.046;5.632;2022-08-04T04:28:19;10.9;;;3.9;;
69404;SDS011;57084;52.046;5.632;2022-08-04T04:29:10;10.9;;;3.9;;
69404;SDS011;57084;52.046;5.632;2022-08-04T04:30:04;10.9;;;3.9;;
69404;SDS011;57084;52.046;5.632;2022-08-04T04:31:07;10.9;;;3.9;;
69404;SDS011;57084;52.046;5.632;2022-08-04T04:32:04;10.9;;;3.9;;
69404;SDS011;57084;52.046;5.632;2022-08-04T04:33:06;10.9;;;3.9;;
69404;SDS011;57084;52.046;5.632;2022-08-04T04:34:10;13.2;;;4.0;;
69404;SDS011;57084;52.046;5.632;2022-08-04T04:35:09;13.2;;;4.0;;
69404;SDS011;57084;52.046;5.632;2022-08-04T04:36:09;13.2;;;4.0;;
69404;SDS011;57084;52.046;5.632;2022-08-04T04:37:08;13.2;;;4.0;;
69404;SDS011;57084;52.046;5.632;2022-08-04T04:38:15;13.2;;;4.0;;
69404;SDS011;57084;52.046;5.632;2022-08-04T04:39:08;11.2;;;3.7;;
69404;SDS011;57084;52.046;5.632;2022-08-04T04:40:07;11.2;;;3.7;;
69404;SDS011;57084;52.046;5.632;2022-08-04T04:41:04;11.2;;;3.7;;
69404;SDS011;57084;52.046;5.632;2022-08-04T04:42:06;11.2;;;3.7;;
69404;SDS011;57084;52.046;5.632;2022-08-04T04:43:12;11.2;;;3.7;;
69404;SDS011;57084;52.046;5.632;2022-08-04T04:44:09;10.2;;;3.8;;
69404;SDS011;57084;52.046;5.632;2022-08-04T04:45:20;10.2;;;3.8;;
69404;SDS011;57084;52.046;5.632;2022-08-04T04:46:05;10.2;;;3.8;;
69404;SDS011;57084;52.046;5.632;2022-08-04T04:47:06;10.2;;;3.8;;
69404;SDS011;57084;52.046;5.632;2022-08-04T04:48:06;10.2;;;3.8;;
69404;SDS011;57084;52.046;5.632;2022-08-04T04:49:07;12.0;;;4.0;;
69404;SDS011;57084;52.046;5.632;2022-08-04T04:50:03;12.0;;;4.0;;
69404;SDS011;57084;52.046;5.632;2022-08-04T04:51:09;12.0;;;4.0;;
69404;SDS011;57084;52.046;5.632;2022-08-04T04:52:05;12.0;;;4.0;;
69404;SDS011;57084;52.046;5.632;2022-08-04T04:53:03;12.0;;;4.0;;
69404;SDS011;57084;52.046;5.632;2022-08-04T04:54:04;11.8;;;4.0;;
69404;SDS011;57084;52.046;5.632;2022-08-04T04:55:06;11.8;;;4.0;;
69404;SDS011;57084;52.046;5.632;2022-08-04T04:56:04;11.8;;;4.0;;
69404;SDS011;57084;52.046;5.632;2022-08-04T04:57:05;11.8;;;4.0;;
69404;SDS011;57084;52.046;5.632;2022-08-04T04:58:00;11.8;;;4.0;;
69404;SDS011;57084;52.046;5.632;2022-08-04T04:59:01;17.0;;;4.0;;
69404;SDS011;57084;52.046;5.632;2022-08-04T05:00:05;17.0;;;4.0;;
69404;SDS011;57084;52.046;5.632;2022-08-04T05:02:23;17.0;;;4.0;;
69404;SDS011;57084;52.046;5.632;2022-08-04T05:03:16;17.0;;;4.0;;
69404;SDS011;57084;52.046;5.632;2022-08-04T05:04:15;11.3;;;3.7;;
69404;SDS011;57084;52.046;5.632;2022-08-04T05:05:13;11.3;;;3.7;;
69404;SDS011;57084;52.046;5.632;2022-08-04T05:06:13;11.3;;;3.7;;
69404;SDS011;57084;52.046;5.632;2022-08-04T05:07:20;11.3;;;3.7;;
69404;SDS011;57084;52.046;5.632;2022-08-04T05:08:22;11.3;;;3.7;;
69404;SDS011;57084;52.046;5.632;2022-08-04T05:09:06;14.4;;;3.8;;
69404;SDS011;57084;52.046;5.632;2022-08-04T05:10:06;14.4;;;3.8;;
69404;SDS011;57084;52.046;5.632;2022-08-04T05:11:12;14.4;;;3.8;;
69404;SDS011;57084;52.046;5.632;2022-08-04T05:12:13;14.4;;;3.8;;
69404;SDS011;57084;52.046;5.632;2022-08-04T05:13:13;14.4;;;3.8;;
69404;SDS011;57084;52.046;5.632;2022-08-04T05:14:03;11.7;;;3.9;;
69404;SDS011;57084;52.046;5.632;2022-08-04T05:15:02;11.7;;;3.9;;
69404;SDS011;57084;52.046;5.632;2022-08-04T05:16:06;11.7;;;3.9;;
69404;SDS011;57084;52.046;5.632;2022-08-04T05:17:03;11.7;;;3.9;;
69404;SDS011;57084;52.046;5.632;2022-08-04T05:18:02;11.7;;;3.9;;
69404;SDS011;57084;52.046;5.632;2022-08-04T05:19:09;16.3;;;4.4;;
69404;SDS011;57084;52.046;5.632;2022-08-04T05:20:05;16.3;;;4.4;;
69404;SDS011;57084;52.046;5.632;2022-08-04T05:21:14;16.3;;;4.4;;
69404;SDS011;57084;52.046;5.632;2022-08-04T05:22:03;16.3;;;4.4;;
69404;SDS011;57084;52.046;5.632;2022-08-04T05:23:02;16.3;;;4.4;;
69404;SDS011;57084;52.046;5.632;2022-08-04T05:24:05;12.4;;;4.1;;
69404;SDS011;57084;52.046;5.632;2022-08-04T05:25:03;12.4;;;4.1;;
69404;SDS011;57084;52.046;5.632;2022-08-04T05:26:04;12.4;;;4.1;;
69404;SDS011;57084;52.046;5.632;2022-08-04T05:27:02;12.4;;;4.1;;
69404;SDS011;57084;52.046;5.632;2022-08-04T05:28:03;12.4;;;4.1;;
69404;SDS011;57084;52.046;5.632;2022-08-04T05:29:05;14.1;;;3.9;;
69404;SDS011;57084;52.046;5.632;2022-08-04T05:30:02;14.1;;;3.9;;
69404;SDS011;57084;52.046;5.632;2022-08-04T05:31:04;14.1;;;3.9;;
69404;SDS011;57084;52.046;5.632;2022-08-04T05:32:03;14.1;;;3.9;;
69404;SDS011;57084;52.046;5.632;2022-08-04T05:33:02;14.1;;;3.9;;
69404;SDS011;57084;52.046;5.632;2022-08-04T05:34:04;11.1;;;4.1;;
69404;SDS011;57084;52.046;5.632;2022-08-04T05:35:03;11.1;;;4.1;;
69404;SDS011;57084;52.046;5.632;2022-08-04T05:36:05;11.1;;;4.1;;
69404;SDS011;57084;52.046;5.632;2022-08-04T05:37:02;11.1;;;4.1;;
69404;SDS011;57084;52.046;5.632;2022-08-04T05:38:01;11.1;;;4.1;;
69404;SDS011;57084;52.046;5.632;2022-08-04T05:39:01;15.2;;;4.3;;
69404;SDS011;57084;52.046;5.632;2022-08-04T05:40:04;15.2;;;4.3;;
69404;SDS011;57084;52.046;5.632;2022-08-04T05:41:00;15.2;;;4.3;;
69404;SDS011;57084;52.046;5.632;2022-08-04T05:42:01;15.2;;;4.3;;
69404;SDS011;57084;52.046;5.632;2022-08-04T05:43:00;15.2;;;4.3;;
69404;SDS011;57084;52.046;5.632;2022-08-04T05:44:01;12.3;;;4.1;;
69404;SDS011;57084;52.046;5.632;2022-08-04T05:45:01;12.3;;;4.1;;
69404;SDS011;57084;52.046;5.632;2022-08-04T05:46:00;12.3;;;4.1;;
69404;SDS011;57084;52.046;5.632;2022-08-04T05:47:01;12.3;;;4.1;;
69404;SDS011;57084;52.046;5.632;2022-08-04T05:48:00;12.3;;;4.1;;
69404;SDS011;57084;52.046;5.632;2022-08-04T05:49:00;13.9;;;4.4;;
69404;SDS011;57084;52.046;5.632;2022-08-04T05:50:00;13.9;;;4.4;;
69404;SDS011;57084;52.046;5.632;2022-08-04T05:51:00;13.9;;;4.4;;
69404;SDS011;57084;52.046;5.632;2022-08-04T05:52:01;13.9;;;4.4;;
69404;SDS011;57084;52.046;5.632;2022-08-04T05:53:00;13.9;;;4.4;;
69404;SDS011;57084;52.046;5.632;2022-08-04T05:54:01;13.4;;;4.1;;
69404;SDS011;57084;52.046;5.632;2022-08-04T05:55:00;13.4;;;4.1;;
69404;SDS011;57084;52.046;5.632;2022-08-04T05:56:01;13.4;;;4.1;;
69404;SDS011;57084;52.046;5.632;2022-08-04T05:57:02;13.4;;;4.1;;
69404;SDS011;57084;52.046;5.632;2022-08-04T05:58:01;13.4;;;4.1;;
69404;SDS011;57084;52.046;5.632;2022-08-04T05:59:01;11.5;;;4.0;;
69404;SDS011;57084;52.046;5.632;2022-08-04T06:00:03;11.5;;;4.0;;
69404;SDS011;57084;52.046;5.632;2022-08-04T06:01:00;11.5;;;4.0;;
69404;SDS011;57084;52.046;5.632;2022-08-04T06:02:01;11.5;;;4.0;;
69404;SDS011;57084;52.046;5.632;2022-08-04T06:03:00;11.5;;;4.0;;
69404;SDS011;57084;52.046;5.632;2022-08-04T06:04:01;12.8;;;4.1;;
69404;SDS011;57084;52.046;5.632;2022-08-04T06:05:00;12.8;;;4.1;;
69404;SDS011;57084;52.046;5.632;2022-08-04T06:06:00;12.8;;;4.1;;
69404;SDS011;57084;52.046;5.632;2022-08-04T06:07:00;12.8;;;4.1;;
69404;SDS011;57084;52.046;5.632;2022-08-04T06:08:00;12.8;;;4.1;;
69404;SDS011;57084;52.046;5.632;2022-08-04T06:09:00;14.7;;;5.2;;
69404;SDS011;57084;52.046;5.632;2022-08-04T06:10:00;14.7;;;5.2;;
69404;SDS011;57084;52.046;5.632;2022-08-04T06:11:04;14.7;;;5.2;;
69404;SDS011;57084;52.046;5.632;2022-08-04T06:12:03;14.7;;;5.2;;
69404;SDS011;57084;52.046;5.632;2022-08-04T06:13:02;14.7;;;5.2;;
69404;SDS011;57084;52.046;5.632;2022-08-04T06:14:03;15.8;;;4.2;;
69404;SDS011;57084;52.046;5.632;2022-08-04T06:15:00;15.8;;;4.2;;
69404;SDS011;57084;52.046;5.632;2022-08-04T06:16:01;15.8;;;4.2;;
69404;SDS011;57084;52.046;5.632;2022-08-04T06:17:04;15.8;;;4.2;;